createdAt,value
2017-09-12T00:00:35.576Z,16.12
2017-09-12T00:01:44.402Z,16.09
2017-09-12T00:02:53.556Z,16.05
2017-09-12T00:04:02.388Z,16.09
2017-09-12T00:05:11.220Z,16.14
2017-09-12T00:06:20.041Z,16.12
2017-09-12T00:07:28.870Z,16.05
2017-09-12T00:08:37.699Z,16.17
2017-09-12T00:09:46.544Z,16.12
2017-09-12T00:10:55.357Z,16.15
2017-09-12T00:12:04.184Z,16.12
2017-09-12T00:13:13.015Z,16.14
2017-09-12T00:14:21.844Z,16.17
2017-09-12T00:15:30.668Z,16.05
2017-09-12T00:16:39.496Z,16.15
2017-09-12T00:17:48.321Z,16.11
2017-09-12T00:18:57.152Z,16.08
2017-09-12T00:20:05.984Z,16.05
2017-09-12T00:21:14.813Z,16.12
2017-09-12T00:22:23.635Z,16.17
2017-09-12T00:23:32.795Z,16.17
2017-09-12T00:24:41.621Z,16.17
2017-09-12T00:25:50.455Z,16.14
2017-09-12T00:26:59.284Z,16.2
2017-09-12T00:28:08.106Z,16.08
2017-09-12T00:29:16.935Z,16.12
2017-09-12T00:30:25.767Z,16.01
2017-09-12T00:31:34.592Z,15.97
2017-09-12T00:32:43.422Z,16.05
2017-09-12T00:33:52.254Z,16.01
2017-09-12T00:35:01.083Z,16.04
2017-09-12T00:36:09.908Z,16.09
2017-09-12T00:37:18.742Z,16.05
2017-09-12T00:38:27.569Z,16
2017-09-12T00:39:36.405Z,15.92
2017-09-12T00:40:45.232Z,16.05
2017-09-12T00:41:54.059Z,16
2017-09-12T00:43:02.888Z,16.08
2017-09-12T00:44:11.715Z,15.97
2017-09-12T00:45:20.544Z,16
2017-09-12T00:46:29.370Z,16
2017-09-12T00:47:38.199Z,15.97
2017-09-12T00:48:47.029Z,15.89
2017-09-12T00:49:55.859Z,15.96
2017-09-12T00:51:04.683Z,15.89
2017-09-12T00:52:13.514Z,15.97
2017-09-12T00:53:22.342Z,15.97
2017-09-12T00:54:31.174Z,15.93
2017-09-12T00:55:40.008Z,15.89
2017-09-12T00:56:48.832Z,15.86
2017-09-12T00:57:57.664Z,15.92
2017-09-12T00:59:06.499Z,15.87
2017-09-12T01:00:15.324Z,15.86
2017-09-12T01:01:24.151Z,15.87
2017-09-12T01:02:32.977Z,15.86
2017-09-12T01:03:41.801Z,15.78
2017-09-12T01:04:50.631Z,15.82
2017-09-12T01:05:59.785Z,15.8
2017-09-12T01:07:08.613Z,15.83
2017-09-12T01:08:17.445Z,15.84
2017-09-12T01:09:26.272Z,15.74
2017-09-12T01:10:35.093Z,15.89
2017-09-12T01:11:43.922Z,15.82
2017-09-12T01:12:52.751Z,15.82
2017-09-12T01:14:01.581Z,15.84
2017-09-12T01:15:10.410Z,15.89
2017-09-12T01:16:19.242Z,15.82
2017-09-12T01:17:28.390Z,15.75
2017-09-12T01:18:37.220Z,15.86
2017-09-12T01:19:46.047Z,15.84
2017-09-12T01:20:54.877Z,15.86
2017-09-12T01:22:03.703Z,15.78
2017-09-12T01:23:12.532Z,15.74
2017-09-12T01:24:21.360Z,15.74
2017-09-12T01:25:30.193Z,15.76
2017-09-12T01:26:39.020Z,15.74
2017-09-12T01:27:47.847Z,15.75
2017-09-12T01:28:56.673Z,15.72
2017-09-12T01:30:05.504Z,15.69
2017-09-12T01:31:14.329Z,15.69
2017-09-12T01:32:23.159Z,15.72
2017-09-12T01:33:31.986Z,15.72
2017-09-12T01:34:40.814Z,15.67
2017-09-12T01:35:49.637Z,15.69
2017-09-12T01:36:58.464Z,15.69
2017-09-12T01:38:07.288Z,15.71
2017-09-12T01:39:16.119Z,15.59
2017-09-12T01:40:24.951Z,15.67
2017-09-12T01:41:33.773Z,15.67
2017-09-12T01:42:42.604Z,15.74
2017-09-12T01:43:51.431Z,15.64
2017-09-12T01:45:00.257Z,15.59
2017-09-12T01:46:09.084Z,15.59
2017-09-12T01:47:17.913Z,15.64
2017-09-12T01:48:26.738Z,15.59
2017-09-12T01:49:35.566Z,15.5
2017-09-12T01:50:44.399Z,15.59
2017-09-12T01:51:53.221Z,15.6
2017-09-12T01:53:02.049Z,15.59
2017-09-12T01:54:10.874Z,15.57
2017-09-12T01:55:19.707Z,15.6
2017-09-12T01:56:28.533Z,15.49
2017-09-12T01:57:37.360Z,15.56
2017-09-12T01:58:46.188Z,15.47
2017-09-12T01:59:55.013Z,15.44
2017-09-12T02:01:03.844Z,15.47
2017-09-12T02:02:12.669Z,15.43
2017-09-12T02:03:21.497Z,15.49
2017-09-12T02:04:30.324Z,15.35
2017-09-12T02:05:39.152Z,15.46
2017-09-12T02:06:47.979Z,15.38
2017-09-12T02:07:56.808Z,15.46
2017-09-12T02:09:05.637Z,15.44
2017-09-12T02:10:14.463Z,15.35
2017-09-12T02:11:23.294Z,15.43
2017-09-12T02:12:32.120Z,15.32
2017-09-12T02:13:40.948Z,15.35
2017-09-12T02:14:50.103Z,15.41
2017-09-12T02:15:58.930Z,15.44
2017-09-12T02:17:07.756Z,15.43
2017-09-12T02:18:16.589Z,15.44
2017-09-12T02:19:25.412Z,15.39
2017-09-12T02:20:34.239Z,15.41
2017-09-12T02:21:43.065Z,15.38
2017-09-12T02:22:51.891Z,15.44
2017-09-12T02:24:00.719Z,15.41
2017-09-12T02:25:09.545Z,15.38
2017-09-12T02:26:18.374Z,15.35
2017-09-12T02:27:27.201Z,15.21
2017-09-12T02:28:36.026Z,15.36
2017-09-12T02:29:44.853Z,15.28
2017-09-12T02:30:53.676Z,15.36
2017-09-12T02:32:02.506Z,15.35
2017-09-12T02:33:11.331Z,15.32
2017-09-12T02:34:20.160Z,15.29
2017-09-12T02:35:28.981Z,15.28
2017-09-12T02:36:37.817Z,15.31
2017-09-12T02:37:46.639Z,15.29
2017-09-12T02:38:55.469Z,15.29
2017-09-12T02:40:04.303Z,15.28
2017-09-12T02:41:13.131Z,15.29
2017-09-12T02:42:21.954Z,15.2
2017-09-12T02:43:30.789Z,15.19
2017-09-12T02:44:39.616Z,15.28
2017-09-12T02:45:48.443Z,15.28
2017-09-12T02:46:57.270Z,15.23
2017-09-12T02:48:06.101Z,15.25
2017-09-12T02:49:14.922Z,15.25
2017-09-12T02:50:23.751Z,15.27
2017-09-12T02:51:32.578Z,15.17
2017-09-12T02:52:41.409Z,15.2
2017-09-12T02:53:50.243Z,15.17
2017-09-12T02:54:59.065Z,15.19
2017-09-12T02:56:07.892Z,15.21
2017-09-12T02:57:16.723Z,15.19
2017-09-12T02:58:25.547Z,15.16
2017-09-12T02:59:34.378Z,15.21
2017-09-12T03:00:43.208Z,15.19
2017-09-12T03:01:52.035Z,15.14
2017-09-12T03:03:00.856Z,15.19
2017-09-12T03:04:09.689Z,15.16
2017-09-12T03:05:18.513Z,15.14
2017-09-12T03:06:27.343Z,15.11
2017-09-12T03:07:36.169Z,15.16
2017-09-12T03:08:44.995Z,15.03
2017-09-12T03:09:53.824Z,15.11
2017-09-12T03:11:02.652Z,15.02
2017-09-12T03:12:11.480Z,15.07
2017-09-12T03:13:20.304Z,15.03
2017-09-12T03:14:29.129Z,15.02
2017-09-12T03:15:37.957Z,15.03
2017-09-12T03:16:46.779Z,15.02
2017-09-12T03:17:55.933Z,15.06
2017-09-12T03:19:04.767Z,15.03
2017-09-12T03:20:13.594Z,15.01
2017-09-12T03:21:22.425Z,15.06
2017-09-12T03:22:31.247Z,15.01
2017-09-12T03:23:40.072Z,14.99
2017-09-12T03:24:48.937Z,15.01
2017-09-12T03:25:58.096Z,14.98
2017-09-12T03:27:06.922Z,14.98
2017-09-12T03:28:15.751Z,15.06
2017-09-12T03:29:24.583Z,14.91
2017-09-12T03:30:33.405Z,15.01
2017-09-12T03:31:42.240Z,14.94
2017-09-12T03:32:51.065Z,14.99
2017-09-12T03:33:59.890Z,14.95
2017-09-12T03:35:08.717Z,14.96
2017-09-12T03:36:17.548Z,14.96
2017-09-12T03:37:26.373Z,14.92
2017-09-12T03:38:35.204Z,14.92
2017-09-12T03:39:44.358Z,14.88
2017-09-12T03:40:53.183Z,14.94
2017-09-12T03:42:02.009Z,14.95
2017-09-12T03:43:10.837Z,14.98
2017-09-12T03:44:19.658Z,14.94
2017-09-12T03:45:28.488Z,14.94
2017-09-12T03:46:37.319Z,14.88
2017-09-12T03:47:46.148Z,14.92
2017-09-12T03:48:54.974Z,14.95
2017-09-12T03:50:03.805Z,14.96
2017-09-12T03:51:12.630Z,15.03
2017-09-12T03:52:21.454Z,14.94
2017-09-12T03:53:30.286Z,14.96
2017-09-12T03:54:39.114Z,14.98
2017-09-12T03:55:47.940Z,14.94
2017-09-12T03:56:56.776Z,14.96
2017-09-12T03:58:05.618Z,15.01
2017-09-12T03:59:14.467Z,14.96
2017-09-12T04:00:23.315Z,14.95
2017-09-12T04:01:32.160Z,14.86
2017-09-12T04:02:41.005Z,14.86
2017-09-12T04:03:49.853Z,14.83
2017-09-12T04:04:58.698Z,14.84
2017-09-12T04:06:07.547Z,14.83
2017-09-12T04:07:16.445Z,14.83
2017-09-12T04:08:25.291Z,14.89
2017-09-12T04:09:34.136Z,14.83
2017-09-12T04:10:42.980Z,14.8
2017-09-12T04:11:51.828Z,14.78
2017-09-12T04:13:00.673Z,14.83
2017-09-12T04:14:09.521Z,14.83
2017-09-12T04:15:18.371Z,14.83
2017-09-12T04:16:27.218Z,14.86
2017-09-12T04:17:36.064Z,14.77
2017-09-12T04:18:44.910Z,14.73
2017-09-12T04:19:53.754Z,14.7
2017-09-12T04:21:02.600Z,14.72
2017-09-12T04:22:11.447Z,14.7
2017-09-12T04:23:20.618Z,14.7
2017-09-12T04:24:29.464Z,14.72
2017-09-12T04:25:38.313Z,14.72
2017-09-12T04:26:47.159Z,14.78
2017-09-12T04:27:56.005Z,14.83
2017-09-12T04:29:04.853Z,14.72
2017-09-12T04:30:13.703Z,14.65
2017-09-12T04:31:22.549Z,14.73
2017-09-12T04:32:31.394Z,14.77
2017-09-12T04:33:40.242Z,14.65
2017-09-12T04:34:49.087Z,14.78
2017-09-12T04:35:57.935Z,14.73
2017-09-12T04:37:06.783Z,14.73
2017-09-12T04:38:15.629Z,14.72
2017-09-12T04:39:24.473Z,14.83
2017-09-12T04:40:33.322Z,14.68
2017-09-12T04:41:42.165Z,14.72
2017-09-12T04:42:51.013Z,14.69
2017-09-12T04:43:59.861Z,14.75
2017-09-12T04:45:08.706Z,14.7
2017-09-12T04:46:17.552Z,14.73
2017-09-12T04:47:26.398Z,14.73
2017-09-12T04:48:35.242Z,14.72
2017-09-12T04:49:44.090Z,14.83
2017-09-12T04:50:52.937Z,14.73
2017-09-12T04:52:01.781Z,14.8
2017-09-12T04:53:10.626Z,14.8
2017-09-12T04:54:19.475Z,14.83
2017-09-12T04:55:28.322Z,14.84
2017-09-12T04:56:37.169Z,14.81
2017-09-12T04:57:46.016Z,14.88
2017-09-12T04:58:54.862Z,14.81
2017-09-12T05:00:03.705Z,14.86
2017-09-12T05:01:12.558Z,14.8
2017-09-12T05:02:21.404Z,14.77
2017-09-12T05:03:30.247Z,14.78
2017-09-12T05:04:39.102Z,14.92
2017-09-12T05:05:47.941Z,14.8
2017-09-12T05:06:56.786Z,14.96
2017-09-12T05:08:05.634Z,14.96
2017-09-12T05:09:14.485Z,14.94
2017-09-12T05:10:23.328Z,15.02
2017-09-12T05:11:32.179Z,15.01
2017-09-12T05:12:41.347Z,15.07
2017-09-12T05:13:50.192Z,15.01
2017-09-12T05:14:59.042Z,15.02
2017-09-12T05:16:07.890Z,15.02
2017-09-12T05:17:16.737Z,15.02
2017-09-12T05:18:25.588Z,14.96
2017-09-12T05:19:34.436Z,15.02
2017-09-12T05:20:43.281Z,15.06
2017-09-12T05:21:52.129Z,15.06
2017-09-12T05:23:00.981Z,14.99
2017-09-12T05:24:10.156Z,15.03
2017-09-12T05:25:19.006Z,14.95
2017-09-12T05:26:27.850Z,15.06
2017-09-12T05:27:36.696Z,15.09
2017-09-12T05:28:45.542Z,15.07
2017-09-12T05:29:54.390Z,15.1
2017-09-12T05:31:03.236Z,15.07
2017-09-12T05:32:12.083Z,15.1
2017-09-12T05:33:20.930Z,15.17
2017-09-12T05:34:29.776Z,15.17
2017-09-12T05:35:38.625Z,15.17
2017-09-12T05:36:47.473Z,15.16
2017-09-12T05:37:56.319Z,15.19
2017-09-12T05:39:05.165Z,15.23
2017-09-12T05:40:14.014Z,15.2
2017-09-12T05:41:22.861Z,15.21
2017-09-12T05:42:32.038Z,15.23
2017-09-12T05:43:40.887Z,15.21
2017-09-12T05:44:49.731Z,15.25
2017-09-12T05:45:58.576Z,15.2
2017-09-12T05:47:07.424Z,15.23
2017-09-12T05:48:16.269Z,15.21
2017-09-12T05:49:25.119Z,15.19
2017-09-12T05:50:34.292Z,15.2
2017-09-12T05:51:43.138Z,15.31
2017-09-12T05:52:51.984Z,15.27
2017-09-12T05:54:00.831Z,15.35
2017-09-12T05:55:09.679Z,15.31
2017-09-12T05:56:18.529Z,15.35
2017-09-12T05:57:27.379Z,15.29
2017-09-12T05:58:36.225Z,15.28
2017-09-12T05:59:45.071Z,15.32
2017-09-12T06:00:53.920Z,15.31
2017-09-12T06:02:02.765Z,15.39
2017-09-12T06:03:11.615Z,15.38
2017-09-12T06:04:20.463Z,15.43
2017-09-12T06:05:29.309Z,15.43
2017-09-12T06:06:38.155Z,15.47
2017-09-12T06:07:47.326Z,15.46
2017-09-12T06:08:56.172Z,15.44
2017-09-12T06:10:05.022Z,15.49
2017-09-12T06:11:14.191Z,15.5
2017-09-12T06:12:23.037Z,15.47
2017-09-12T06:13:31.886Z,15.47
2017-09-12T06:14:40.735Z,15.53
2017-09-12T06:15:49.581Z,15.6
2017-09-12T06:16:58.431Z,15.59
2017-09-12T06:18:07.276Z,15.59
2017-09-12T06:19:16.124Z,15.51
2017-09-12T06:20:24.974Z,15.65
2017-09-12T06:21:33.818Z,15.62
2017-09-12T06:22:42.666Z,15.71
2017-09-12T06:23:51.514Z,15.69
2017-09-12T06:25:00.363Z,15.69
2017-09-12T06:26:09.210Z,15.69
2017-09-12T06:27:18.057Z,15.72
2017-09-12T06:28:26.903Z,15.74
2017-09-12T06:29:35.750Z,15.83
2017-09-12T06:30:44.597Z,15.72
2017-09-12T06:31:53.442Z,15.84
2017-09-12T06:33:02.292Z,15.76
2017-09-12T06:34:11.138Z,15.72
2017-09-12T06:35:19.984Z,15.83
2017-09-12T06:36:28.832Z,15.72
2017-09-12T06:37:37.681Z,15.72
2017-09-12T06:38:46.853Z,15.76
2017-09-12T06:39:55.701Z,15.74
2017-09-12T06:41:04.875Z,15.8
2017-09-12T06:42:13.722Z,15.8
2017-09-12T06:43:22.568Z,15.84
2017-09-12T06:44:31.424Z,15.87
2017-09-12T06:45:40.267Z,15.83
2017-09-12T06:46:49.118Z,15.83
2017-09-12T06:47:57.970Z,15.87
2017-09-12T06:49:06.815Z,15.96
2017-09-12T06:50:15.661Z,15.92
2017-09-12T06:51:24.509Z,16
2017-09-12T06:52:33.686Z,15.94
2017-09-12T06:53:42.536Z,16.01
2017-09-12T06:54:51.384Z,15.97
2017-09-12T06:56:00.231Z,16
2017-09-12T06:57:09.078Z,16
2017-09-12T06:58:17.926Z,16
2017-09-12T06:59:26.776Z,15.97
2017-09-12T07:00:35.622Z,16.15
2017-09-12T07:01:44.469Z,16.15
2017-09-12T07:02:53.317Z,16.17
2017-09-12T07:04:02.163Z,16.15
2017-09-12T07:05:11.015Z,16.14
2017-09-12T07:06:19.865Z,16.14
2017-09-12T07:07:28.710Z,16.11
2017-09-12T07:08:37.558Z,16.12
2017-09-12T07:09:46.406Z,16.2
2017-09-12T07:10:55.250Z,16.12
2017-09-12T07:12:04.102Z,16.15
2017-09-12T07:13:12.952Z,16.17
2017-09-12T07:14:21.797Z,16.25
2017-09-12T07:15:30.647Z,16.33
2017-09-12T07:16:39.495Z,16.31
2017-09-12T07:17:48.342Z,16.34
2017-09-12T07:18:57.192Z,16.35
2017-09-12T07:20:06.041Z,16.39
2017-09-12T07:21:14.887Z,16.38
2017-09-12T07:22:23.742Z,16.33
2017-09-12T07:23:32.589Z,16.33
2017-09-12T07:24:41.435Z,16.33
2017-09-12T07:25:50.286Z,16.38
2017-09-12T07:26:59.134Z,16.39
2017-09-12T07:28:07.985Z,16.38
2017-09-12T07:29:16.840Z,16.38
2017-09-12T07:30:25.686Z,16.43
2017-09-12T07:31:34.532Z,16.43
2017-09-12T07:32:43.382Z,16.53
2017-09-12T07:33:52.235Z,16.61
2017-09-12T07:35:01.083Z,16.6
2017-09-12T07:36:09.929Z,16.6
2017-09-12T07:37:18.779Z,16.68
2017-09-12T07:38:27.624Z,16.75
2017-09-12T07:39:36.474Z,16.7
2017-09-12T07:40:45.324Z,16.76
2017-09-12T07:41:54.172Z,16.7
2017-09-12T07:43:03.016Z,16.79
2017-09-12T07:44:11.868Z,16.82
2017-09-12T07:45:20.715Z,16.78
2017-09-12T07:46:29.565Z,16.79
2017-09-12T07:47:38.747Z,16.81
2017-09-12T07:48:47.592Z,16.78
2017-09-12T07:49:56.440Z,16.81
2017-09-12T07:51:05.612Z,16.82
2017-09-12T07:52:14.784Z,16.82
2017-09-12T07:53:23.631Z,16.83
2017-09-12T07:54:32.478Z,16.86
2017-09-12T07:55:41.324Z,16.83
2017-09-12T07:56:50.171Z,16.78
2017-09-12T07:57:59.023Z,16.76
2017-09-12T07:59:07.871Z,16.81
2017-09-12T08:00:16.720Z,16.75
2017-09-12T08:01:25.571Z,16.78
2017-09-12T08:02:34.420Z,16.79
2017-09-12T08:03:43.271Z,16.85
2017-09-12T08:04:52.119Z,16.81
2017-09-12T08:06:00.969Z,16.82
2017-09-12T08:07:09.820Z,16.85
2017-09-12T08:08:18.666Z,16.89
2017-09-12T08:09:27.515Z,16.83
2017-09-12T08:10:36.365Z,16.85
2017-09-12T08:11:45.211Z,16.81
2017-09-12T08:12:54.059Z,16.86
2017-09-12T08:14:02.910Z,16.86
2017-09-12T08:15:11.759Z,16.86
2017-09-12T08:16:20.609Z,16.91
2017-09-12T08:17:29.459Z,16.85
2017-09-12T08:18:38.308Z,16.85
2017-09-12T08:19:47.154Z,16.89
2017-09-12T08:20:56.003Z,16.94
2017-09-12T08:22:04.888Z,16.89
2017-09-12T08:23:13.703Z,16.91
2017-09-12T08:24:22.551Z,16.96
2017-09-12T08:25:31.399Z,16.88
2017-09-12T08:26:40.249Z,16.96
2017-09-12T08:27:49.099Z,16.93
2017-09-12T08:28:57.951Z,17
2017-09-12T08:30:06.803Z,16.94
2017-09-12T08:31:15.652Z,16.93
2017-09-12T08:32:24.498Z,16.85
2017-09-12T08:33:33.347Z,16.96
2017-09-12T08:34:42.200Z,16.85
2017-09-12T08:35:51.045Z,16.98
2017-09-12T08:36:59.895Z,16.98
2017-09-12T08:38:08.747Z,16.98
2017-09-12T08:39:17.594Z,16.97
2017-09-12T08:40:26.441Z,17.08
2017-09-12T08:41:35.292Z,17.16
2017-09-12T08:42:44.141Z,17.12
2017-09-12T08:43:52.990Z,17.15
2017-09-12T08:45:01.840Z,17.16
2017-09-12T08:46:10.685Z,17.18
2017-09-12T08:47:19.541Z,17.15
2017-09-12T08:48:28.389Z,17.16
2017-09-12T08:49:37.240Z,17.15
2017-09-12T08:50:46.086Z,17.18
2017-09-12T08:51:54.937Z,17.21
2017-09-12T08:53:03.785Z,17.21
2017-09-12T08:54:12.630Z,17.25
2017-09-12T08:55:21.480Z,17.28
2017-09-12T08:56:30.330Z,17.37
2017-09-12T08:57:39.176Z,17.38
2017-09-12T08:58:48.027Z,17.44
2017-09-12T08:59:56.875Z,17.4
2017-09-12T09:01:05.723Z,17.38
2017-09-12T09:02:14.573Z,17.41
2017-09-12T09:03:23.422Z,17.41
2017-09-12T09:04:32.268Z,17.48
2017-09-12T09:05:41.119Z,17.43
2017-09-12T09:06:49.965Z,17.43
2017-09-12T09:07:58.817Z,17.43
2017-09-12T09:09:07.668Z,17.48
2017-09-12T09:10:16.516Z,17.41
2017-09-12T09:11:25.364Z,17.49
2017-09-12T09:12:34.214Z,17.48
2017-09-12T09:13:43.061Z,17.59
2017-09-12T09:14:51.907Z,17.66
2017-09-12T09:16:00.756Z,17.62
2017-09-12T09:17:09.604Z,17.75
2017-09-12T09:18:18.449Z,17.64
2017-09-12T09:19:27.298Z,17.62
2017-09-12T09:20:36.147Z,17.68
2017-09-12T09:21:44.994Z,17.72
2017-09-12T09:22:53.841Z,17.68
2017-09-12T09:24:02.694Z,17.64
2017-09-12T09:25:11.542Z,17.75
2017-09-12T09:26:20.390Z,17.74
2017-09-12T09:27:29.242Z,17.77
2017-09-12T09:28:38.090Z,17.84
2017-09-12T09:29:46.938Z,17.86
2017-09-12T09:30:55.789Z,17.96
2017-09-12T09:32:04.637Z,17.97
2017-09-12T09:33:13.484Z,18.07
2017-09-12T09:34:22.334Z,18.03
2017-09-12T09:35:31.182Z,18.11
2017-09-12T09:36:40.034Z,18.14
2017-09-12T09:37:48.884Z,18.18
2017-09-12T09:38:57.732Z,18.26
2017-09-12T09:40:06.580Z,18.29
2017-09-12T09:41:15.431Z,18.35
2017-09-12T09:42:24.277Z,18.39
2017-09-12T09:43:33.126Z,18.45
2017-09-12T09:44:41.977Z,18.35
2017-09-12T09:45:50.825Z,18.48
2017-09-12T09:46:59.672Z,18.41
2017-09-12T09:48:08.523Z,18.47
2017-09-12T09:49:17.371Z,18.45
2017-09-12T09:50:26.222Z,18.44
2017-09-12T09:51:35.074Z,18.51
2017-09-12T09:52:43.923Z,18.45
2017-09-12T09:53:52.769Z,18.47
2017-09-12T09:55:01.623Z,18.45
2017-09-12T09:56:10.475Z,18.52
2017-09-12T09:57:19.325Z,18.52
2017-09-12T09:58:28.175Z,18.6
2017-09-12T09:59:37.024Z,18.51
2017-09-12T10:00:45.872Z,18.57
2017-09-12T10:01:54.722Z,18.5
2017-09-12T10:03:03.895Z,18.41
2017-09-12T10:04:13.067Z,18.5
2017-09-12T10:05:21.916Z,18.44
2017-09-12T10:06:30.766Z,18.42
2017-09-12T10:07:39.614Z,18.44
2017-09-12T10:08:48.468Z,18.45
2017-09-12T10:09:57.316Z,18.48
2017-09-12T10:11:06.166Z,18.5
2017-09-12T10:12:15.020Z,18.45
2017-09-12T10:13:23.868Z,18.44
2017-09-12T10:14:32.718Z,18.57
2017-09-12T10:15:41.570Z,18.58
2017-09-12T10:16:50.423Z,18.58
2017-09-12T10:17:59.271Z,18.58
2017-09-12T10:19:08.122Z,18.67
2017-09-12T10:20:16.972Z,18.58
2017-09-12T10:21:25.820Z,18.62
2017-09-12T10:22:34.672Z,18.7
2017-09-12T10:23:43.523Z,18.73
2017-09-12T10:24:52.372Z,18.8
2017-09-12T10:26:01.223Z,18.81
2017-09-12T10:27:10.071Z,18.7
2017-09-12T10:28:18.919Z,18.82
2017-09-12T10:29:27.769Z,18.78
2017-09-12T10:30:36.620Z,18.75
2017-09-12T10:31:45.469Z,18.78
2017-09-12T10:32:54.316Z,18.76
2017-09-12T10:34:03.167Z,18.73
2017-09-12T10:35:12.014Z,18.73
2017-09-12T10:36:20.866Z,18.7
2017-09-12T10:37:29.716Z,18.76
2017-09-12T10:38:38.565Z,18.69
2017-09-12T10:39:47.412Z,18.7
2017-09-12T10:40:56.264Z,18.75
2017-09-12T10:42:05.114Z,18.82
2017-09-12T10:43:13.967Z,18.76
2017-09-12T10:44:22.819Z,18.84
2017-09-12T10:45:31.668Z,18.95
2017-09-12T10:46:40.516Z,19
2017-09-12T10:47:49.368Z,19
2017-09-12T10:48:58.216Z,18.94
2017-09-12T10:50:07.069Z,18.99
2017-09-12T10:51:15.919Z,18.91
2017-09-12T10:52:24.766Z,18.99
2017-09-12T10:53:33.614Z,19.08
2017-09-12T10:54:42.466Z,18.99
2017-09-12T10:55:51.316Z,18.99
2017-09-12T10:57:00.166Z,19.04
2017-09-12T10:58:09.018Z,19.02
2017-09-12T10:59:17.865Z,18.98
2017-09-12T11:00:26.713Z,19.02
2017-09-12T11:01:35.563Z,19.04
2017-09-12T11:02:44.410Z,18.95
2017-09-12T11:03:53.259Z,18.99
2017-09-12T11:05:02.113Z,18.98
2017-09-12T11:06:10.962Z,18.95
2017-09-12T11:07:19.812Z,18.98
2017-09-12T11:08:28.663Z,18.95
2017-09-12T11:09:37.512Z,18.99
2017-09-12T11:10:46.362Z,19.07
2017-09-12T11:11:55.215Z,18.98
2017-09-12T11:13:04.066Z,19.14
2017-09-12T11:14:12.914Z,19.08
2017-09-12T11:15:22.089Z,19.22
2017-09-12T11:16:30.939Z,19.16
2017-09-12T11:17:39.788Z,19.13
2017-09-12T11:18:48.641Z,19.19
2017-09-12T11:19:57.488Z,19.22
2017-09-12T11:21:06.338Z,19.33
2017-09-12T11:22:15.188Z,19.36
2017-09-12T11:23:24.040Z,19.4
2017-09-12T11:24:32.888Z,19.43
2017-09-12T11:25:41.739Z,19.41
2017-09-12T11:26:50.590Z,19.41
2017-09-12T11:27:59.435Z,19.37
2017-09-12T11:29:08.286Z,19.29
2017-09-12T11:30:17.141Z,19.28
2017-09-12T11:31:25.992Z,19.31
2017-09-12T11:32:34.846Z,19.28
2017-09-12T11:33:43.694Z,19.33
2017-09-12T11:34:52.541Z,19.29
2017-09-12T11:36:01.393Z,19.25
2017-09-12T11:37:10.244Z,19.28
2017-09-12T11:38:19.092Z,19.26
2017-09-12T11:39:27.946Z,19.23
2017-09-12T11:40:36.794Z,19.23
2017-09-12T11:41:45.645Z,19.29
2017-09-12T11:42:54.497Z,19.44
2017-09-12T11:44:03.348Z,19.36
2017-09-12T11:45:12.200Z,19.41
2017-09-12T11:46:21.049Z,19.48
2017-09-12T11:47:29.899Z,19.43
2017-09-12T11:48:38.747Z,19.51
2017-09-12T11:49:47.599Z,19.51
2017-09-12T11:50:56.779Z,19.51
2017-09-12T11:52:05.626Z,19.5
2017-09-12T11:53:14.475Z,19.61
2017-09-12T11:54:23.328Z,19.56
2017-09-12T11:55:32.177Z,19.51
2017-09-12T11:56:41.029Z,19.56
2017-09-12T11:57:49.877Z,19.66
2017-09-12T11:58:58.729Z,19.62
2017-09-12T12:00:07.581Z,19.54
2017-09-12T12:01:16.432Z,19.55
2017-09-12T12:02:25.283Z,19.58
2017-09-12T12:03:34.132Z,19.62
2017-09-12T12:04:42.982Z,19.62
2017-09-12T12:05:51.832Z,19.63
2017-09-12T12:07:00.682Z,19.61
2017-09-12T12:08:09.530Z,19.59
2017-09-12T12:09:18.379Z,19.65
2017-09-12T12:10:27.228Z,19.65
2017-09-12T12:11:36.077Z,19.62
2017-09-12T12:12:44.926Z,19.77
2017-09-12T12:13:53.777Z,19.87
2017-09-12T12:15:02.626Z,19.88
2017-09-12T12:16:11.479Z,19.87
2017-09-12T12:17:20.328Z,19.86
2017-09-12T12:18:29.176Z,19.87
2017-09-12T12:19:38.029Z,19.99
2017-09-12T12:20:46.881Z,19.95
2017-09-12T12:21:55.730Z,19.88
2017-09-12T12:23:04.577Z,19.91
2017-09-12T12:24:13.431Z,19.87
2017-09-12T12:25:22.282Z,19.88
2017-09-12T12:26:31.136Z,19.84
2017-09-12T12:27:39.986Z,19.84
2017-09-12T12:28:48.840Z,19.77
2017-09-12T12:29:57.690Z,19.73
2017-09-12T12:31:06.542Z,19.74
2017-09-12T12:32:15.393Z,19.77
2017-09-12T12:33:24.245Z,19.73
2017-09-12T12:34:33.097Z,19.66
2017-09-12T12:35:41.946Z,19.65
2017-09-12T12:36:50.797Z,19.65
2017-09-12T12:37:59.648Z,19.66
2017-09-12T12:39:08.498Z,19.71
2017-09-12T12:40:17.351Z,19.62
2017-09-12T12:41:26.203Z,19.74
2017-09-12T12:42:35.054Z,19.62
2017-09-12T12:43:43.901Z,19.69
2017-09-12T12:44:52.753Z,19.76
2017-09-12T12:46:01.608Z,19.68
2017-09-12T12:47:10.460Z,19.59
2017-09-12T12:48:19.314Z,19.62
2017-09-12T12:49:28.163Z,19.63
2017-09-12T12:50:37.013Z,19.61
2017-09-12T12:51:45.868Z,19.58
2017-09-12T12:52:54.720Z,19.51
2017-09-12T12:54:03.572Z,19.5
2017-09-12T12:55:12.423Z,19.43
2017-09-12T12:56:21.271Z,19.4
2017-09-12T12:57:30.121Z,19.37
2017-09-12T12:58:38.974Z,19.44
2017-09-12T12:59:47.828Z,19.31
2017-09-12T13:00:56.678Z,19.31
2017-09-12T13:02:05.528Z,19.36
2017-09-12T13:03:14.379Z,19.36
2017-09-12T13:04:23.227Z,19.29
2017-09-12T13:05:32.079Z,19.37
2017-09-12T13:06:40.930Z,19.37
2017-09-12T13:07:49.783Z,19.31
2017-09-12T13:08:58.962Z,19.26
2017-09-12T13:10:07.812Z,19.32
2017-09-12T13:11:16.662Z,19.43
2017-09-12T13:12:25.514Z,19.4
2017-09-12T13:13:34.369Z,19.46
2017-09-12T13:14:43.219Z,19.37
2017-09-12T13:15:52.071Z,19.44
2017-09-12T13:17:00.922Z,19.47
2017-09-12T13:18:09.772Z,19.43
2017-09-12T13:19:18.627Z,19.46
2017-09-12T13:20:27.479Z,19.55
2017-09-12T13:21:36.333Z,19.58
2017-09-12T13:22:45.182Z,19.62
2017-09-12T13:23:54.030Z,19.5
2017-09-12T13:25:02.881Z,19.5
2017-09-12T13:26:11.734Z,19.54
2017-09-12T13:27:20.587Z,19.51
2017-09-12T13:28:29.436Z,19.48
2017-09-12T13:29:38.289Z,19.5
2017-09-12T13:30:47.141Z,19.51
2017-09-12T13:31:55.993Z,19.55
2017-09-12T13:33:04.845Z,19.46
2017-09-12T13:34:13.696Z,19.39
2017-09-12T13:35:22.546Z,19.39
2017-09-12T13:36:31.397Z,19.37
2017-09-12T13:37:40.247Z,19.39
2017-09-12T13:38:49.098Z,19.43
2017-09-12T13:39:57.946Z,19.41
2017-09-12T13:41:06.797Z,19.39
2017-09-12T13:42:15.648Z,19.37
2017-09-12T13:43:24.497Z,19.32
2017-09-12T13:44:33.352Z,19.31
2017-09-12T13:45:42.199Z,19.36
2017-09-12T13:47:55.177Z,19.28
2017-09-12T13:49:04.035Z,19.32
2017-09-12T13:50:12.893Z,19.32
2017-09-12T13:51:21.750Z,19.29
2017-09-12T13:52:30.608Z,19.25
2017-09-12T13:53:39.467Z,19.29
2017-09-12T13:54:48.323Z,19.32
2017-09-12T13:55:57.184Z,19.36
2017-09-12T13:57:06.040Z,19.29
2017-09-12T13:58:14.902Z,19.36
2017-09-12T13:59:23.760Z,19.37
2017-09-12T14:00:32.621Z,19.4
2017-09-12T14:01:41.477Z,19.36
2017-09-12T14:02:50.336Z,19.46
2017-09-12T14:03:59.195Z,19.54
2017-09-12T14:05:08.053Z,19.48
2017-09-12T14:06:16.910Z,19.47
2017-09-12T14:07:25.773Z,19.55
2017-09-12T14:08:34.626Z,19.58
2017-09-12T14:09:43.811Z,19.59
2017-09-12T14:10:52.678Z,19.59
2017-09-12T14:12:01.532Z,19.62
2017-09-12T14:13:10.390Z,19.62
2017-09-12T14:14:19.255Z,19.59
2017-09-12T14:15:28.115Z,19.59
2017-09-12T14:16:36.973Z,19.54
2017-09-12T14:17:45.833Z,19.47
2017-09-12T14:18:54.694Z,19.58
2017-09-12T14:20:03.552Z,19.56
2017-09-12T14:21:12.409Z,19.55
2017-09-12T14:22:21.592Z,19.5
2017-09-12T14:23:30.448Z,19.51
2017-09-12T14:24:39.306Z,19.51
2017-09-12T14:25:48.166Z,19.58
2017-09-12T14:26:57.023Z,19.56
2017-09-12T14:28:05.881Z,19.63
2017-09-12T14:29:14.741Z,19.74
2017-09-12T14:30:23.600Z,19.76
2017-09-12T14:31:32.462Z,19.81
2017-09-12T14:32:41.323Z,19.88
2017-09-12T14:33:50.179Z,19.86
2017-09-12T14:34:59.033Z,19.71
2017-09-12T14:36:07.893Z,19.65
2017-09-12T14:37:16.750Z,19.66
2017-09-12T14:38:25.613Z,19.59
2017-09-12T14:39:34.481Z,19.55
2017-09-12T14:40:43.330Z,19.47
2017-09-12T14:41:52.185Z,19.39
2017-09-12T14:43:01.376Z,19.4
2017-09-12T14:44:10.234Z,19.32
2017-09-12T14:45:19.094Z,19.26
2017-09-12T14:46:27.957Z,19.29
2017-09-12T14:47:36.811Z,19.32
2017-09-12T14:48:45.670Z,19.19
2017-09-12T14:49:54.532Z,19.16
2017-09-12T14:51:03.397Z,19.28